createdAt,value
2019-02-05T00:00:33.326Z,19.5
2019-02-05T00:01:21.026Z,19.5
2019-02-05T00:02:10.791Z,19.5
2019-02-05T00:03:01.127Z,19.6
2019-02-05T00:03:53.103Z,19.6
2019-02-05T00:04:39.914Z,19.6
2019-02-05T00:05:31.581Z,19.6
2019-02-05T00:06:21.763Z,19.6
2019-02-05T00:07:10.856Z,19.3
2019-02-05T00:08:01.459Z,18.9
2019-02-05T00:08:52.364Z,18.6
2019-02-05T00:09:43.671Z,18.3
2019-02-05T00:10:30.612Z,18.1
2019-02-05T00:11:21.411Z,17.9
2019-02-05T00:12:11.311Z,17.8
2019-02-05T00:13:03.013Z,17.7
2019-02-05T00:13:51.133Z,17.6
2019-02-05T00:14:41.508Z,17.6
2019-02-05T00:15:32.415Z,18.1
2019-02-05T00:16:21.606Z,18.3
2019-02-05T00:17:12.176Z,18.5
2019-02-05T00:18:01.798Z,18.6
2019-02-05T00:18:55.541Z,18.8
2019-02-05T00:19:42.305Z,19.1
2019-02-05T00:20:32.450Z,19.3
2019-02-05T00:21:21.963Z,19.3
2019-02-05T00:22:12.408Z,19.4
2019-02-05T00:23:02.075Z,19.5
2019-02-05T00:23:51.865Z,19.5
2019-02-05T00:24:42.927Z,19.5
2019-02-05T00:25:32.562Z,19.5
2019-02-05T00:26:23.315Z,19.5
2019-02-05T00:27:13.146Z,19.6
2019-02-05T00:28:06.047Z,19.6
2019-02-05T00:28:53.489Z,19.5
2019-02-05T00:29:42.830Z,19.6
2019-02-05T00:30:32.550Z,19.6
2019-02-05T00:31:23.714Z,19.6
2019-02-05T00:32:12.625Z,19.5
2019-02-05T00:33:02.187Z,19.3
2019-02-05T00:33:53.762Z,18.8
2019-02-05T00:34:43.094Z,18.4
2019-02-05T00:35:33.979Z,18.2
2019-02-05T00:36:22.897Z,18
2019-02-05T00:37:16.007Z,17.8
2019-02-05T00:38:03.597Z,17.7
2019-02-05T00:38:53.936Z,17.6
2019-02-05T00:39:43.699Z,17.5
2019-02-05T00:40:35.281Z,17.6
2019-02-05T00:41:24.369Z,18.1
2019-02-05T00:42:14.419Z,18.3
2019-02-05T00:43:04.364Z,18.4
2019-02-05T00:43:54.274Z,18.6
2019-02-05T00:44:44.151Z,18.6
2019-02-05T00:45:34.660Z,19
2019-02-05T00:46:25.769Z,19.2
2019-02-05T00:47:14.282Z,19.3
2019-02-05T00:48:04.764Z,19.4
2019-02-05T00:48:54.612Z,19.4
2019-02-05T00:49:45.933Z,19.4
2019-02-05T00:50:34.299Z,19.5
2019-02-05T00:51:24.486Z,19.5
2019-02-05T00:52:15.583Z,19.6
2019-02-05T00:53:04.928Z,19.6
2019-02-05T00:53:55.593Z,19.6
2019-02-05T00:54:45.188Z,19.6
2019-02-05T00:55:37.179Z,19.7
2019-02-05T00:56:27.084Z,19.7
2019-02-05T00:57:15.753Z,19.7
2019-02-05T00:58:04.860Z,19.6
2019-02-05T00:58:56.543Z,19.3
2019-02-05T00:59:45.443Z,18.8
2019-02-05T01:00:35.827Z,18.5
2019-02-05T01:01:26.323Z,18.3
2019-02-05T01:02:15.611Z,18.1
2019-02-05T01:03:06.443Z,17.9
2019-02-05T01:03:55.611Z,17.8
2019-02-05T01:04:49.022Z,17.6
2019-02-05T01:05:35.831Z,17.5
2019-02-05T01:06:26.112Z,17.4
2019-02-05T01:07:16.167Z,17.9
2019-02-05T01:08:07.365Z,18.3
2019-02-05T01:08:56.600Z,18.4
2019-02-05T01:09:45.805Z,18.6
2019-02-05T01:11:26.874Z,19.1
2019-02-05T01:12:15.977Z,19.3
2019-02-05T01:13:05.424Z,19.4
2019-02-05T01:13:58.642Z,19.4
2019-02-05T01:14:45.975Z,19.5
2019-02-05T01:15:35.509Z,19.5
2019-02-05T01:16:26.207Z,19.5
2019-02-05T01:17:15.846Z,19.5
2019-02-05T01:18:06.549Z,19.5
2019-02-05T01:18:57.001Z,19.6
2019-02-05T01:19:47.844Z,19.6
2019-02-05T01:20:37.227Z,19.6
2019-02-05T01:21:26.631Z,19.6
2019-02-05T01:22:17.520Z,19.6
2019-02-05T01:23:09.033Z,19.7
2019-02-05T01:23:56.804Z,19.6
2019-02-05T01:24:47.699Z,19.3
2019-02-05T01:25:37.908Z,18.9
2019-02-05T01:26:40.731Z,18.6
2019-02-05T01:27:16.828Z,18.3
2019-02-05T01:28:07.689Z,18.1
2019-02-05T01:28:58.944Z,18
2019-02-05T01:29:47.546Z,17.8
2019-02-05T01:30:37.960Z,17.7
2019-02-05T01:31:28.164Z,17.6
2019-02-05T01:32:20.477Z,17.4
2019-02-05T01:33:08.115Z,17.9
2019-02-05T01:33:57.267Z,18.2
2019-02-05T01:34:48.411Z,18.4
2019-02-05T01:35:39.068Z,18.6
2019-02-05T01:37:18.431Z,18.9
2019-02-05T01:38:08.600Z,19.2
2019-02-05T01:38:57.635Z,19.3
2019-02-05T01:39:47.510Z,19.4
2019-02-05T01:40:38.270Z,19.4
2019-02-05T01:41:31.458Z,19.5
2019-02-05T01:42:17.833Z,19.6
2019-02-05T01:43:08.000Z,19.6
2019-02-05T01:43:57.437Z,19.6
2019-02-05T01:44:48.859Z,19.6
2019-02-05T01:45:38.647Z,19.6
2019-02-05T01:46:29.258Z,19.6
2019-02-05T01:47:19.112Z,19.6
2019-02-05T01:48:07.779Z,19.6
2019-02-05T01:48:59.440Z,19.6
2019-02-05T01:49:48.995Z,19.6
2019-02-05T01:50:41.248Z,19.4
2019-02-05T01:51:29.274Z,19
2019-02-05T01:52:18.355Z,18.6
2019-02-05T01:53:08.377Z,18.4
2019-02-05T01:54:00.135Z,18.1
2019-02-05T01:54:48.727Z,17.9
2019-02-05T01:55:39.675Z,17.8
2019-02-05T01:56:41.635Z,17.7
2019-02-05T01:57:19.687Z,17.5
2019-02-05T01:58:09.357Z,17.4
2019-02-05T01:58:59.306Z,17.8
2019-02-05T01:59:52.229Z,18.1
2019-02-05T02:00:40.057Z,18.3
2019-02-05T02:01:30.089Z,18.5
2019-02-05T02:02:18.984Z,18.6
2019-02-05T02:03:11.199Z,18.9
2019-02-05T02:03:59.652Z,19.1
2019-02-05T02:04:50.333Z,19.3
2019-02-05T02:05:41.452Z,19.4
2019-02-05T02:06:29.622Z,19.4
2019-02-05T02:07:19.434Z,19.4
2019-02-05T02:08:10.111Z,19.5
2019-02-05T02:09:02.349Z,19.5
2019-02-05T02:09:49.571Z,19.6
2019-02-05T02:10:40.685Z,19.6
2019-02-05T02:11:29.761Z,19.6
2019-02-05T02:12:21.063Z,19.6
2019-02-05T02:13:10.161Z,19.6
2019-02-05T02:14:00.920Z,19.6
2019-02-05T02:14:52.637Z,19.6
2019-02-05T02:15:41.083Z,19.6
2019-02-05T02:16:31.076Z,19.3
2019-02-05T02:17:20.951Z,18.9
2019-02-05T02:18:13.618Z,18.6
2019-02-05T02:18:59.188Z,18.3
2019-02-05T02:19:51.040Z,18.1
2019-02-05T02:20:40.831Z,17.9
2019-02-05T02:21:30.580Z,17.8
2019-02-05T02:22:21.380Z,17.7
2019-02-05T02:23:11.608Z,17.6
2019-02-05T02:24:03.800Z,17.5
2019-02-05T02:24:52.045Z,17.8
2019-02-05T02:25:41.700Z,18.1
2019-02-05T02:26:31.255Z,18.3
2019-02-05T02:27:24.747Z,18.4
2019-02-05T02:28:11.622Z,18.6
2019-02-05T02:29:01.667Z,18.9
2019-02-05T02:29:52.525Z,19.1
2019-02-05T02:30:41.927Z,19.3
2019-02-05T02:31:30.962Z,19.4
2019-02-05T02:32:22.277Z,19.4
2019-02-05T02:33:14.669Z,19.4
2019-02-05T02:34:01.845Z,19.5
2019-02-05T02:34:52.265Z,19.5
2019-02-05T02:35:42.157Z,19.5
2019-02-05T02:36:33.492Z,19.5
2019-02-05T02:37:22.623Z,19.5
2019-02-05T02:38:11.961Z,19.5
2019-02-05T02:39:02.622Z,19.5
2019-02-05T02:39:52.199Z,19.5
2019-02-05T02:40:42.004Z,19.5
2019-02-05T02:41:31.679Z,19.5
2019-02-05T02:42:25.224Z,19.3
2019-02-05T02:43:11.439Z,18.9
2019-02-05T02:44:03.341Z,18.6
2019-02-05T02:44:51.524Z,18.3
2019-02-05T02:45:43.912Z,18.1
2019-02-05T02:46:32.269Z,17.9
2019-02-05T02:47:23.065Z,17.8
2019-02-05T02:48:12.894Z,17.7
2019-02-05T02:49:03.464Z,17.5
2019-02-05T02:49:53.348Z,17.4
2019-02-05T02:50:43.954Z,17.6
2019-02-05T02:51:35.356Z,18.1
2019-02-05T02:52:23.489Z,18.3
2019-02-05T02:53:12.996Z,18.5
2019-02-05T02:54:03.690Z,18.6
2019-02-05T02:54:58.736Z,18.9
2019-02-05T02:55:44.099Z,19.1
2019-02-05T02:56:33.603Z,19.3
2019-02-05T02:57:24.573Z,19.4
2019-02-05T02:58:17.531Z,19.5
2019-02-05T02:59:04.015Z,19.5
2019-02-05T02:59:53.253Z,19.6
2019-02-05T03:00:45.958Z,19.6
2019-02-05T03:01:33.733Z,19.6
2019-02-05T03:02:23.789Z,19.5
2019-02-05T03:03:14.220Z,19.5
2019-02-05T03:04:04.570Z,19.5
2019-02-05T03:04:53.804Z,19.6
2019-02-05T03:08:26.172Z,19.3
2019-02-05T03:09:16.455Z,18.8
2019-02-05T03:10:08.200Z,18.4
2019-02-05T03:10:56.581Z,18.2
2019-02-05T03:11:46.582Z,18
2019-02-05T03:12:36.393Z,17.9
2019-02-05T03:13:29.769Z,17.8
2019-02-05T03:14:16.907Z,17.6
2019-02-05T03:15:07.344Z,17.6
2019-02-05T03:15:57.547Z,17.4
2019-02-05T03:16:47.611Z,17.7
2019-02-05T03:17:36.512Z,18
2019-02-05T03:18:26.909Z,18.3
2019-02-05T03:19:20.387Z,18.4
2019-02-05T03:20:07.630Z,18.5
2019-02-05T03:20:57.050Z,18.8
2019-02-05T03:21:47.072Z,19.1
2019-02-05T03:22:36.694Z,19.2
2019-02-05T03:23:27.102Z,19.3
2019-02-05T03:24:17.680Z,19.3
2019-02-05T03:25:10.302Z,19.4
2019-02-05T03:25:57.131Z,19.4
2019-02-05T03:26:47.849Z,19.4
2019-02-05T03:27:37.398Z,19.4
2019-02-05T03:28:27.639Z,19.5
2019-02-05T03:29:17.496Z,19.5
2019-02-05T03:30:07.792Z,19.5
2019-02-05T03:31:02.302Z,19.5
2019-02-05T03:31:48.532Z,19.6
2019-02-05T03:32:38.165Z,19.6
2019-02-05T03:33:29.089Z,19.6
2019-02-05T03:34:19.184Z,19.4
2019-02-05T03:35:09.140Z,19.1
2019-02-05T03:36:49.081Z,18.4
2019-02-05T03:37:37.463Z,18.2
2019-02-05T03:38:27.487Z,18
2019-02-05T03:39:18.098Z,17.8
2019-02-05T03:40:11.503Z,17.7
2019-02-05T03:40:58.265Z,17.6
2019-02-05T03:41:48.815Z,17.5
2019-02-05T03:42:39.510Z,17.6
2019-02-05T03:43:28.103Z,18
2019-02-05T03:44:18.212Z,18.3
2019-02-05T03:45:08.900Z,18.4
2019-02-05T03:46:01.720Z,18.6
2019-02-05T03:46:48.781Z,18.8
2019-02-05T03:47:38.007Z,19.1
2019-02-05T03:48:28.880Z,19.3
2019-02-05T03:49:19.100Z,19.4
2019-02-05T03:50:09.742Z,19.4
2019-02-05T03:50:59.240Z,19.5
2019-02-05T03:51:51.234Z,19.5
2019-02-05T03:52:39.602Z,19.6
2019-02-05T03:53:28.506Z,19.6
2019-02-05T03:54:19.706Z,19.6
2019-02-05T03:55:10.905Z,19.6
2019-02-05T03:55:59.770Z,19.6
2019-02-05T03:56:49.509Z,19.6
2019-02-05T03:59:40.597Z,19.5
2019-02-05T03:59:54.209Z,19.3
2019-02-05T04:00:41.208Z,19.3
2019-02-05T04:01:31.861Z,19.2
2019-02-05T04:02:21.655Z,19.1
2019-02-05T04:03:13.246Z,19
2019-02-05T04:04:01.839Z,18.9
2019-02-05T04:04:51.776Z,18.9
2019-02-05T04:05:42.927Z,18.9
2019-02-05T04:06:31.891Z,18.8
2019-02-05T04:07:21.673Z,18.8
2019-02-05T04:08:12.059Z,18.9
2019-02-05T04:09:04.238Z,18.9
2019-02-05T04:09:52.231Z,18.9
2019-02-05T04:10:42.142Z,18.9
2019-02-05T04:11:32.510Z,18.9
2019-02-05T04:12:21.799Z,18.9
2019-02-05T04:13:12.630Z,19
2019-02-05T04:14:02.413Z,19.1
2019-02-05T04:14:52.731Z,19.1
2019-02-05T04:15:43.065Z,18.9
2019-02-05T04:16:32.329Z,18.4
2019-02-05T04:17:22.722Z,18.1
2019-02-05T04:18:14.734Z,17.8
2019-02-05T04:19:02.734Z,17.6
2019-02-05T04:19:52.875Z,17.4
2019-02-05T04:20:43.156Z,17.3
2019-02-05T04:21:32.929Z,17.2
2019-02-05T04:22:23.256Z,17.1
2019-02-05T04:23:12.902Z,17.1
2019-02-05T04:24:04.933Z,17.1
2019-02-05T04:24:53.445Z,17.5
2019-02-05T04:25:43.411Z,17.8
2019-02-05T04:26:33.218Z,18.1
2019-02-05T04:27:26.145Z,18.3
2019-02-05T04:28:12.633Z,18.5
2019-02-05T04:29:04.063Z,18.8
2019-02-05T04:29:53.926Z,19
2019-02-05T04:30:43.728Z,19.1
2019-02-05T04:31:34.219Z,19.2
2019-02-05T04:32:23.738Z,19.3
2019-02-05T04:33:16.467Z,19.3
2019-02-05T04:34:03.913Z,19.3
2019-02-05T04:34:53.626Z,19.3
2019-02-05T04:35:44.470Z,19.4
2019-02-05T04:36:35.978Z,19.3
2019-02-05T04:37:23.788Z,19.4
2019-02-05T04:38:13.370Z,19.4
2019-02-05T04:39:04.050Z,19.4
2019-02-05T04:39:54.605Z,19.4
2019-02-05T04:40:44.888Z,19.4
2019-02-05T04:41:34.968Z,19.2
2019-02-05T04:42:27.567Z,18.8
2019-02-05T04:43:14.196Z,18.4
2019-02-05T04:44:04.268Z,18.2
2019-02-05T04:44:54.745Z,18
2019-02-05T04:45:46.385Z,17.8
2019-02-05T04:46:35.454Z,17.6
2019-02-05T04:47:24.519Z,17.6
2019-02-05T04:48:15.192Z,17.4
2019-02-05T04:49:04.867Z,17.4
2019-02-05T04:49:54.915Z,17.8
2019-02-05T04:50:44.999Z,18.1
2019-02-05T04:51:37.790Z,18.3
2019-02-05T04:52:24.901Z,18.4
2019-02-05T04:53:15.534Z,18.6
2019-02-05T04:54:05.929Z,18.9
2019-02-05T04:54:55.559Z,19.1
2019-02-05T04:55:45.313Z,19.3
2019-02-05T04:56:35.546Z,19.4
2019-02-05T04:57:26.708Z,19.5
2019-02-05T04:58:16.147Z,19.5
2019-02-05T04:59:05.567Z,19.5
2019-02-05T04:59:55.604Z,19.5
2019-02-05T05:00:48.654Z,19.5
2019-02-05T05:01:36.334Z,19.6
2019-02-05T05:02:26.466Z,19.6
2019-02-05T05:03:16.614Z,19.5
2019-02-05T05:04:06.493Z,19.5
2019-02-05T05:04:55.504Z,19.5
2019-02-05T05:05:46.372Z,19.5
2019-02-05T05:06:37.741Z,19.4
2019-02-05T05:07:26.179Z,19
2019-02-05T05:08:16.765Z,18.6
2019-02-05T05:09:06.843Z,18.3
2019-02-05T05:09:59.004Z,18.1
2019-02-05T05:10:46.220Z,17.9
2019-02-05T05:11:36.515Z,17.8
2019-02-05T05:12:26.705Z,17.7
2019-02-05T05:13:16.698Z,17.6
2019-02-05T05:14:06.690Z,17.4
2019-02-05T05:14:56.475Z,17.4
2019-02-05T05:15:48.815Z,17.9
2019-02-05T05:16:36.496Z,18.1
2019-02-05T05:17:26.505Z,18.3
2019-02-05T05:18:20.016Z,18.5
2019-02-05T05:19:08.715Z,18.8
2019-02-05T05:19:57.066Z,19
2019-02-05T05:20:47.423Z,19.1
2019-02-05T05:21:38.306Z,19.3
2019-02-05T05:22:27.951Z,19.3
2019-02-05T05:23:17.967Z,19.4
2019-02-05T05:24:07.932Z,19.4
2019-02-05T05:25:00.359Z,19.4
2019-02-05T05:25:48.238Z,19.4
2019-02-05T05:26:37.733Z,19.4
2019-02-05T05:27:28.783Z,19.5
2019-02-05T05:28:20.510Z,19.4
2019-02-05T05:29:08.048Z,19.4
2019-02-05T05:29:58.782Z,19.5
2019-02-05T05:30:50.605Z,19.5
2019-02-05T05:31:39.091Z,19.5
2019-02-05T05:32:28.402Z,19.4
2019-02-05T05:33:18.452Z,19.1
2019-02-05T05:34:09.400Z,18.6
2019-02-05T05:34:58.632Z,18.3
2019-02-05T05:35:53.540Z,18.1
2019-02-05T05:36:39.963Z,17.9
2019-02-05T05:37:28.211Z,17.8
2019-02-05T05:38:19.155Z,17.7
2019-02-05T05:39:08.479Z,17.6
2019-02-05T05:40:03.031Z,17.4
2019-02-05T05:40:49.591Z,17.4
2019-02-05T05:41:39.214Z,17.8
2019-02-05T05:42:29.020Z,18.1
2019-02-05T05:43:18.476Z,18.3
2019-02-05T05:44:12.505Z,18.4
2019-02-05T05:45:52.350Z,18.9
2019-02-05T05:46:39.207Z,19.1
2019-02-05T05:47:29.706Z,19.3
2019-02-05T05:48:19.828Z,19.4
2019-02-05T05:49:11.253Z,19.4
2019-02-05T05:49:59.620Z,19.4
2019-02-05T05:50:49.762Z,19.5
2019-02-05T05:51:40.855Z,19.5
2019-02-05T05:52:29.349Z,19.5
2019-02-05T05:53:19.915Z,19.5
2019-02-05T05:54:10.140Z,19.5
2019-02-05T05:55:02.829Z,19.6
2019-02-05T05:55:49.520Z,19.6
2019-02-05T05:56:38.761Z,19.6
2019-02-05T05:57:30.095Z,19.6
2019-02-05T05:58:35.128Z,19.6
2019-02-05T05:59:09.623Z,19.2
2019-02-05T05:59:59.833Z,18.9
2019-02-05T06:00:53.877Z,18.6
2019-02-05T06:01:39.895Z,18.3
2019-02-05T06:02:30.107Z,18.1
2019-02-05T06:03:20.739Z,17.9
2019-02-05T06:04:11.620Z,17.8
2019-02-05T06:06:25.924Z,17.4
2019-02-05T06:07:15.311Z,17.6
2019-02-05T06:08:06.892Z,17.9
2019-02-05T06:08:58.809Z,18.3
2019-02-05T06:09:46.568Z,18.4
2019-02-05T06:10:35.739Z,18.5
2019-02-05T06:11:25.882Z,18.8
2019-02-05T06:12:15.385Z,19.1
2019-02-05T06:13:06.787Z,19.2
2019-02-05T06:13:56.871Z,19.3
2019-02-05T06:14:47.847Z,19.3
2019-02-05T06:15:39.929Z,19.4
2019-02-05T06:16:27.071Z,19.4
2019-02-05T06:17:16.537Z,19.4
2019-02-05T06:18:10.998Z,19.5
2019-02-05T06:18:57.301Z,19.5
2019-02-05T06:19:46.220Z,19.5
2019-02-05T06:20:37.183Z,19.5
2019-02-05T06:21:26.045Z,19.4
2019-02-05T06:22:17.322Z,19.5
2019-02-05T06:23:07.881Z,19.4
2019-02-05T06:24:00.938Z,19.4
2019-02-05T06:24:46.973Z,19.4
2019-02-05T06:25:36.527Z,19.3
2019-02-05T06:26:30.271Z,19.3
2019-02-05T06:27:17.606Z,19.1
2019-02-05T06:28:07.939Z,19.1
2019-02-05T06:28:57.698Z,19
2019-02-05T06:29:48.678Z,18.9
2019-02-05T06:30:37.573Z,18.9
2019-02-05T06:31:27.628Z,18.9
2019-02-05T06:32:18.405Z,18.9
2019-02-05T06:33:09.985Z,18.9
2019-02-05T06:33:58.330Z,18.9
2019-02-05T06:34:48.138Z,18.9
2019-02-05T06:35:38.228Z,18.9
2019-02-05T06:36:29.057Z,18.9
2019-02-05T06:37:18.871Z,18.8
2019-02-05T06:38:08.565Z,18.4
2019-02-05T06:39:00.455Z,18.1
2019-02-05T06:39:48.983Z,17.8
2019-02-05T06:40:39.256Z,17.6
2019-02-05T06:41:28.291Z,17.4
2019-02-05T06:42:21.277Z,17.3
2019-02-05T06:43:08.662Z,17.2
2019-02-05T06:43:57.842Z,17.1
2019-02-05T06:45:41.251Z,17.1
2019-02-05T06:46:29.114Z,17.6
2019-02-05T06:47:18.109Z,17.9
2019-02-05T06:48:12.140Z,18.1
2019-02-05T06:48:58.992Z,18.2
2019-02-05T06:49:49.231Z,18.3
2019-02-05T06:50:39.711Z,18.4
2019-02-05T06:51:28.499Z,18.4
2019-02-05T06:52:19.349Z,18.4
2019-02-05T06:53:09.749Z,18.4
2019-02-05T06:54:00.772Z,18.4
2019-02-05T06:54:49.014Z,18.4
2019-02-05T06:55:39.294Z,18.4
2019-02-05T06:56:29.944Z,18.6
2019-02-05T06:58:09.796Z,18.8
2019-02-05T06:58:58.889Z,18.8
2019-02-05T06:59:49.976Z,18.8
2019-02-05T07:00:38.451Z,18.9
2019-02-05T07:01:29.952Z,18.9
2019-02-05T07:02:19.119Z,18.9
2019-02-05T07:03:12.657Z,18.9
2019-02-05T07:04:00.454Z,18.8
2019-02-05T07:06:25.529Z,18.6
2019-02-05T07:07:15.421Z,18.6
2019-02-05T07:08:05.669Z,18.5
2019-02-05T07:08:58.268Z,18.4
2019-02-05T07:09:45.275Z,18.4
2019-02-05T07:10:36.471Z,18.3
2019-02-05T07:11:26.545Z,18.2
2019-02-05T07:12:16.228Z,18.5
2019-02-05T07:13:59.280Z,18.8
2019-02-05T07:14:48.685Z,18.9
2019-02-05T07:15:36.599Z,19
2019-02-05T07:16:26.302Z,19
2019-02-05T07:17:16.416Z,19
2019-02-05T07:18:11.132Z,19
2019-02-05T07:18:56.110Z,19
2019-02-05T07:19:46.760Z,18.9
2019-02-05T07:20:37.407Z,18.9
2019-02-05T07:21:26.861Z,19
2019-02-05T07:22:17.638Z,19
2019-02-05T07:23:07.445Z,19.1
2019-02-05T07:23:59.512Z,19.1
2019-02-05T07:24:46.284Z,19.1
2019-02-05T07:25:37.447Z,19.1
2019-02-05T07:26:26.900Z,19.1
2019-02-05T07:27:16.443Z,19.2
2019-02-05T07:28:06.569Z,19.2
2019-02-05T07:29:10.511Z,19.1
2019-02-05T07:29:49.753Z,18.9
2019-02-05T07:30:37.309Z,18.8
2019-02-05T07:31:27.015Z,18.5
2019-02-05T07:32:17.732Z,18.3
2019-02-05T07:33:09.114Z,18.1
2019-02-05T07:33:57.311Z,18
2019-02-05T07:34:48.183Z,17.9
2019-02-05T07:35:39.342Z,17.8
2019-02-05T07:36:27.635Z,17.7
2019-02-05T07:37:19.146Z,17.6
2019-02-05T07:38:07.727Z,17.9
2019-02-05T07:38:58.234Z,18.1
2019-02-05T07:39:47.491Z,18.3
2019-02-05T07:40:37.909Z,18.4
2019-02-05T07:41:29.729Z,18.4
2019-02-05T07:42:17.736Z,18.4
2019-02-05T07:43:06.771Z,18.5
2019-02-05T07:43:57.073Z,18.5
2019-02-05T07:44:50.549Z,18.6
2019-02-05T07:45:37.243Z,18.8
2019-02-05T07:46:28.648Z,18.8
2019-02-05T07:47:19.716Z,18.8
2019-02-05T07:48:08.395Z,18.9
2019-02-05T07:48:58.046Z,18.9
2019-02-05T07:49:49.711Z,18.9
2019-02-05T07:50:41.691Z,18.9
2019-02-05T07:51:29.488Z,18.9
2019-02-05T07:52:18.913Z,18.9
2019-02-05T07:53:08.947Z,18.9
2019-02-05T07:53:58.145Z,18.8
2019-02-05T07:54:49.069Z,18.6
2019-02-05T07:55:39.053Z,18.3
2019-02-05T07:56:32.343Z,18.1
2019-02-05T07:57:19.682Z,17.9
2019-02-05T07:58:10.043Z,17.8
2019-02-05T07:59:12.462Z,17.7
2019-02-05T07:59:54.963Z,17.6
2019-02-05T08:00:39.980Z,17.5
2019-02-05T08:01:29.310Z,17.4
2019-02-05T08:02:22.831Z,17.4
2019-02-05T08:03:10.190Z,17.8
2019-02-05T08:04:00.000Z,18
2019-02-05T08:04:50.363Z,18.1
2019-02-05T08:05:41.489Z,18.3
2019-02-05T08:06:29.845Z,18.3
2019-02-05T08:07:20.422Z,18.3
2019-02-05T08:08:24.767Z,18.3
2019-02-05T08:09:00.517Z,18.3
2019-02-05T08:09:49.785Z,18.3
2019-02-05T08:10:40.277Z,18.4
2019-02-05T08:11:32.012Z,18.4
2019-02-05T08:12:20.590Z,18.5
2019-02-05T08:13:11.012Z,18.6
2019-02-05T08:14:00.972Z,18.6
2019-02-05T08:14:50.499Z,18.6
2019-02-05T08:15:40.506Z,18.6
2019-02-05T08:16:33.862Z,18.6
2019-02-05T08:18:11.219Z,18.6
2019-02-05T08:19:01.240Z,18.5
2019-02-05T08:19:53.773Z,18.4
2019-02-05T08:20:41.661Z,18.3
2019-02-05T08:21:31.521Z,18.2
2019-02-05T08:22:21.553Z,18.1
2019-02-05T08:23:11.644Z,18.1
2019-02-05T08:24:01.018Z,17.9
2019-02-05T08:24:51.577Z,17.9
2019-02-05T08:25:43.399Z,17.8
2019-02-05T08:26:31.723Z,17.9
2019-02-05T08:27:21.307Z,18.2
2019-02-05T08:28:12.149Z,18.4
2019-02-05T08:29:04.068Z,18.5
2019-02-05T08:29:50.863Z,18.6
2019-02-05T08:30:40.997Z,18.6
2019-02-05T08:31:31.915Z,18.6
2019-02-05T08:32:22.495Z,18.6
2019-02-05T08:33:11.487Z,18.6
2019-02-05T08:34:04.931Z,18.6
2019-02-05T08:35:41.603Z,18.8
2019-02-05T08:36:32.428Z,18.8
2019-02-05T08:37:23.490Z,18.8
2019-02-05T08:38:12.048Z,18.8
2019-02-05T08:39:02.868Z,18.8
2019-02-05T08:39:50.810Z,18.8
2019-02-05T08:40:45.097Z,18.8
2019-02-05T08:41:30.932Z,18.8
2019-02-05T08:42:21.899Z,18.9
2019-02-05T08:43:12.094Z,18.8
2019-02-05T08:44:52.720Z,18.6
2019-02-05T08:45:42.725Z,18.5
2019-02-05T08:46:34.321Z,18.4
2019-02-05T08:47:23.152Z,18.3
2019-02-05T08:48:13.252Z,18.2
2019-02-05T08:49:03.562Z,18.1
2019-02-05T08:49:55.704Z,18
2019-02-05T08:50:43.339Z,17.9
2019-02-05T08:51:32.102Z,17.8
2019-02-05T08:52:23.260Z,17.8
2019-02-05T08:53:12.886Z,17.6
2019-02-05T08:54:03.389Z,17.6
2019-02-05T08:54:53.561Z,17.5
2019-02-05T08:55:46.444Z,17.4
2019-02-05T08:56:33.116Z,17.4
2019-02-05T08:57:23.889Z,17.3
2019-02-05T08:58:13.571Z,17.3
2019-02-05T08:59:03.693Z,17.2
2019-02-05T08:59:54.169Z,17.1
2019-02-05T09:01:37.201Z,17.2
2019-02-05T09:02:23.106Z,17.5
2019-02-05T09:03:14.911Z,17.6
2019-02-05T09:04:04.134Z,17.8
2019-02-05T09:04:55.190Z,17.8
2019-02-05T09:05:44.994Z,17.9
2019-02-05T09:06:38.023Z,17.9
2019-02-05T09:07:26.030Z,18
2019-02-05T09:08:14.821Z,18.1
2019-02-05T09:09:04.716Z,18.1
2019-02-05T09:09:54.778Z,18.1
2019-02-05T09:10:46.508Z,17.9
2019-02-05T09:11:33.891Z,17.8
2019-02-05T09:12:27.778Z,17.6
2019-02-05T09:13:14.203Z,17.6
2019-02-05T09:14:19.013Z,17.5
2019-02-05T09:14:54.115Z,17.3
2019-02-05T09:15:44.757Z,17.3
2019-02-05T09:16:37.493Z,17.3
2019-02-05T09:17:27.863Z,17.2
2019-02-05T09:18:14.088Z,17.1
2019-02-05T09:19:05.798Z,17.1
2019-02-05T09:20:44.718Z,16.9
2019-02-05T09:21:35.237Z,16.9
2019-02-05T09:22:27.325Z,16.8
2019-02-05T09:23:18.812Z,16.8
2019-02-05T09:24:05.460Z,16.7
2019-02-05T09:24:55.047Z,16.6
2019-02-05T09:25:50.751Z,16.6
2019-02-05T09:26:35.877Z,16.5
2019-02-05T09:27:26.569Z,16.4
2019-02-05T09:28:16.362Z,16.4
2019-02-05T09:29:06.421Z,16.8
2019-02-05T09:29:56.097Z,16.9
2019-02-05T09:30:47.042Z,17.1
2019-02-05T09:31:38.802Z,17.3
2019-02-05T09:32:26.044Z,17.4
2019-02-05T09:33:16.574Z,17.5
2019-02-05T09:34:06.241Z,17.6
2019-02-05T09:34:56.813Z,17.6
2019-02-05T09:35:46.148Z,17.7
2019-02-05T09:36:35.422Z,17.8
2019-02-05T09:37:28.141Z,17.7
2019-02-05T09:38:33.374Z,17.6
2019-02-05T09:39:03.991Z,17.4
2019-02-05T09:39:57.164Z,17.4
2019-02-05T09:40:47.961Z,17.3
2019-02-05T09:41:36.141Z,17.1
2019-02-05T09:42:26.053Z,17.1
2019-02-05T09:43:18.558Z,16.9
2019-02-05T09:44:06.828Z,16.9
2019-02-05T09:44:57.828Z,16.8
2019-02-05T09:45:47.385Z,16.7
2019-02-05T09:46:39.954Z,16.6
2019-02-05T09:47:27.954Z,16.6
2019-02-05T09:48:17.704Z,16.5
2019-02-05T09:49:21.675Z,16.5
2019-02-05T09:49:57.773Z,16.4
2019-02-05T09:50:55.133Z,16.4
2019-02-05T09:51:38.452Z,16.3
2019-02-05T09:52:30.541Z,16.3
2019-02-05T09:53:18.122Z,16.3
2019-02-05T09:54:07.552Z,16.2
2019-02-05T09:54:57.807Z,16.1
2019-02-05T09:55:52.085Z,16.1
2019-02-05T09:56:38.039Z,16.6
2019-02-05T09:57:28.226Z,16.8
2019-02-05T09:58:19.038Z,16.9
2019-02-05T09:59:08.431Z,17.1
2019-02-05T09:59:56.925Z,17.2
2019-02-05T10:00:48.490Z,17.3
2019-02-05T10:01:39.499Z,17.4
2019-02-05T10:02:29.455Z,17.4
2019-02-05T10:03:19.152Z,17.5
2019-02-05T10:04:09.174Z,17.6
2019-02-05T10:04:58.994Z,17.5
2019-02-05T10:07:41.287Z,17.3
2019-02-05T10:08:19.434Z,17.1
2019-02-05T10:09:22.142Z,17.1
2019-02-05T10:10:50.067Z,16.9
2019-02-05T10:12:24.132Z,16.9
2019-02-05T10:12:36.859Z,16.7
2019-02-05T10:14:13.603Z,16.7
2019-02-05T10:14:57.022Z,16.5
2019-02-05T10:15:59.094Z,16.5
2019-02-05T10:16:28.369Z,16.4
2019-02-05T10:17:16.154Z,16.4
2019-02-05T10:18:39.866Z,16.3
2019-02-05T10:18:55.622Z,16.3
2019-02-05T10:20:14.406Z,16.2
2019-02-05T10:20:50.379Z,16.1
2019-02-05T10:22:20.633Z,16.1
2019-02-05T10:23:04.093Z,16
2019-02-05T10:23:39.867Z,16.3
2019-02-05T10:24:44.236Z,16.6
2019-02-05T10:25:33.809Z,16.9
2019-02-05T10:26:46.038Z,17.1
2019-02-05T10:27:02.391Z,17.2
2019-02-05T10:27:47.943Z,17.2
2019-02-05T10:28:37.998Z,17.3
2019-02-05T10:29:31.408Z,17.4
2019-02-05T10:30:16.458Z,17.4
2019-02-05T10:31:07.010Z,17.5
2019-02-05T10:32:13.416Z,17.6
2019-02-05T10:32:48.591Z,17.4
2019-02-05T10:33:38.155Z,17.3
2019-02-05T10:34:40.448Z,17.1
2019-02-05T10:36:11.556Z,16.9
2019-02-05T10:36:58.029Z,16.8
2019-02-05T10:38:03.379Z,16.8
2019-02-05T10:38:40.096Z,16.7
2019-02-05T10:39:29.595Z,16.6
2019-02-05T10:40:18.952Z,16.6
2019-02-05T10:41:09.097Z,16.5
2019-02-05T10:41:59.062Z,16.4
2019-02-05T10:42:51.797Z,16.3
2019-02-05T10:43:39.107Z,16.3
2019-02-05T10:44:31.448Z,16.2
2019-02-05T10:45:51.921Z,16.1
2019-02-05T10:46:08.314Z,16.1
2019-02-05T10:46:58.267Z,16.1
2019-02-05T10:47:48.222Z,16
2019-02-05T10:48:39.635Z,15.9
2019-02-05T10:49:29.842Z,15.9
2019-02-05T10:50:22.569Z,15.9
2019-02-05T10:51:08.536Z,16
2019-02-05T10:51:58.005Z,16.3
2019-02-05T10:52:49.294Z,16.6
2019-02-05T10:53:39.647Z,16.8
2019-02-05T10:54:29.309Z,16.9
2019-02-05T10:56:11.695Z,17.1
2019-02-05T10:56:59.051Z,17.3
2019-02-05T10:57:49.758Z,17.3
2019-02-05T10:58:39.082Z,17.4
2019-02-05T10:59:32.549Z,17.4
2019-02-05T11:00:33.944Z,17.3
2019-02-05T11:01:09.534Z,17.1
2019-02-05T11:02:00.928Z,16.9
2019-02-05T11:02:51.323Z,16.8
2019-02-05T11:03:40.169Z,16.7
2019-02-05T11:04:30.745Z,16.7
2019-02-05T11:05:22.298Z,16.6
2019-02-05T11:06:09.506Z,16.5
2019-02-05T11:07:00.183Z,16.4
2019-02-05T11:07:51.101Z,16.4
2019-02-05T11:08:55.413Z,16.3
2019-02-05T11:09:30.538Z,16.2
2019-02-05T11:10:20.393Z,16.1
2019-02-05T11:11:13.406Z,16.1
2019-02-05T11:12:00.883Z,16.1
2019-02-05T11:12:50.598Z,16
2019-02-05T11:13:40.620Z,16
2019-02-05T11:14:31.933Z,15.9
2019-02-05T11:15:21.833Z,15.9
2019-02-05T11:16:11.493Z,15.9
2019-02-05T11:17:01.447Z,15.8
2019-02-05T11:17:50.862Z,15.8
2019-02-05T11:18:41.717Z,16
2019-02-05T11:19:31.095Z,16.3
2019-02-05T11:20:24.167Z,16.6
2019-02-05T11:21:14.413Z,16.8
2019-02-05T11:22:01.229Z,16.9
2019-02-05T11:23:42.365Z,17.2
2019-02-05T11:24:32.477Z,17.3
2019-02-05T11:25:22.234Z,17.4
2019-02-05T11:26:14.840Z,17.4
2019-02-05T11:27:02.783Z,17.4
2019-02-05T11:27:54.972Z,17.2
2019-02-05T11:28:41.880Z,16.9
2019-02-05T11:29:33.621Z,16.8
2019-02-05T11:30:29.250Z,16.7
2019-02-05T11:31:12.434Z,16.6